Time;durP1;ratioP1;P1;durP2;ratioP2;P2;SDS_P1;SDS_P2;PMS_P1;PMS_P2;Temp;Humidity;BMP_temperature;BMP_pressure;BME280_temperature;BME280_humidity;BME280_pressure;Samples;Min_cycle;Max_cycle;Signal;HPM_P1;HPM_P2
2022/01/15 00:00:47;;;;;;;26.50;8.00;;;;;;;1.30;78.52;99504.31;106119;1274;97180;-72
2022/01/15 00:03:15;;;;;;;29.30;7.50;;;;;;;1.28;78.60;99506.81;106093;1274;111598;-74
2022/01/15 00:05:45;;;;;;;26.40;7.50;;;;;;;1.26;78.62;99510.55;106088;1272;97831;-73
2022/01/15 00:08:15;;;;;;;29.30;7.90;;;;;;;1.24;78.67;99515.30;106080;1274;107885;-72
2022/01/15 00:10:43;;;;;;;27.60;7.90;;;;;;;1.23;78.44;99521.11;106137;1274;97945;-72
2022/01/15 00:13:21;;;;;;;31.20;8.10;;;;;;;1.22;78.50;99522.36;106126;1273;98069;-71
2022/01/15 00:16:01;;;;;;;29.60;8.50;;;;;;;1.22;78.36;99518.89;106141;1274;111535;-74
2022/01/15 00:18:47;;;;;;;27.10;7.30;;;;;;;1.20;78.54;99517.52;106070;1272;97903;-73
2022/01/15 00:21:17;;;;;;;24.30;6.70;;;;;;;1.18;78.48;99520.55;106125;1274;106711;-72
2022/01/15 00:23:44;;;;;;;25.20;6.90;;;;;;;1.16;78.51;99521.64;106161;1274;97947;-73
2022/01/15 00:26:12;;;;;;;24.70;6.50;;;;;;;1.16;78.53;99525.14;106197;1274;97886;-73
2022/01/15 00:28:42;;;;;;;36.30;7.60;;;;;;;1.15;78.39;99531.63;106134;1274;111431;-74
2022/01/15 00:31:12;;;;;;;27.80;6.80;;;;;;;1.14;78.43;99529.39;106182;1274;97876;-75
2022/01/15 00:33:42;;;;;;;26.50;8.40;;;;;;;1.13;78.41;99544.10;106186;1274;108645;-72
2022/01/15 00:36:12;;;;;;;28.30;7.80;;;;;;;1.12;78.33;99543.95;106112;1274;98046;-71
2022/01/15 00:38:40;;;;;;;26.20;5.80;;;;;;;1.10;78.42;99545.04;106151;1274;97986;-72
2022/01/15 00:41:08;;;;;;;24.00;6.50;;;;;;;1.09;78.38;99549.80;106126;1274;110414;-72
2022/01/15 00:43:35;;;;;;;23.50;6.90;;;;;;;1.08;78.48;99542.98;106143;1274;97840;-72
2022/01/15 00:46:05;;;;;;;23.90;6.10;;;;;;;1.07;78.36;99541.79;106057;1274;107681;-71
2022/01/15 00:48:34;;;;;;;27.50;6.90;;;;;;;1.04;78.42;99541.67;106016;1274;97863;-71
2022/01/15 00:51:02;;;;;;;22.90;6.10;;;;;;;1.02;78.33;99543.48;106147;1274;97953;-70
2022/01/15 00:53:29;;;;;;;21.40;6.30;;;;;;;1.02;78.41;99543.85;106073;1274;111110;-72
2022/01/15 00:55:57;;;;;;;23.30;5.90;;;;;;;0.99;78.26;99537.64;106162;1274;97953;-71
2022/01/15 00:58:25;;;;;;;20.50;6.90;;;;;;;0.98;78.31;99536.09;106225;1273;107752;-72
2022/01/15 01:00:53;;;;;;;26.80;7.40;;;;;;;0.96;78.25;99538.06;106136;1274;98081;-71
2022/01/15 01:03:22;;;;;;;22.00;6.10;;;;;;;0.94;78.25;99541.27;106150;1274;97960;-71
2022/01/15 01:05:50;;;;;;;22.90;5.80;;;;;;;0.93;78.27;99541.64;106136;1274;111312;-73
2022/01/15 01:08:17;;;;;;;24.30;7.20;;;;;;;0.91;78.19;99541.49;106126;1274;98555;-71
2022/01/15 01:10:57;;;;;;;23.90;5.90;;;;;;;0.91;78.22;99543.79;106084;1274;107627;-69
2022/01/15 01:13:42;;;;;;;26.20;6.80;;;;;;;0.89;78.17;99547.48;106075;1274;97844;-71
2022/01/15 01:24:23;;;;;;;23.50;7.10;;;;;;;0.84;78.13;99549.89;106135;1274;106120;-73
2022/01/15 01:26:58;;;;;;;27.60;6.70;;;;;;;0.83;78.29;99550.78;106009;1274;97893;-72
2022/01/15 01:29:48;;;;;;;31.00;7.10;;;;;;;0.81;78.25;99555.02;106007;1274;97892;-72
2022/01/15 01:35:12;;;;;;;22.40;6.30;;;;;;;0.80;78.22;99550.52;105990;1274;98806;-71
2022/01/15 01:37:48;;;;;;;23.30;6.10;;;;;;;0.77;78.25;99547.62;106013;1273;108187;-71
2022/01/15 01:40:31;;;;;;;27.70;6.60;;;;;;;0.76;78.03;99542.60;105987;1274;97869;-72
2022/01/15 01:43:28;;;;;;;29.60;6.90;;;;;;;0.73;78.20;99542.29;106166;1273;95388;-71
2022/01/15 01:46:14;;;;;;;25.60;6.40;;;;;;;0.70;78.19;99540.63;106150;1274;111385;-72
2022/01/15 01:48:49;;;;;;;34.80;6.50;;;;;;;0.67;77.99;99542.45;106061;1274;97408;-72
2022/01/15 01:51:31;;;;;;;26.50;6.80;;;;;;;0.65;78.17;99540.59;106210;1274;107717;-72
2022/01/15 01:54:03;;;;;;;23.50;5.90;;;;;;;0.63;78.06;99541.16;106110;1274;97867;-72
2022/01/15 01:56:36;;;;;;;24.50;6.00;;;;;;;0.60;78.14;99546.45;106072;1274;98043;-73
2022/01/15 01:59:07;;;;;;;22.80;6.10;;;;;;;0.58;78.15;99541.80;106176;1273;111448;-73
2022/01/15 02:01:39;;;;;;;22.70;6.80;;;;;;;0.56;78.10;99545.69;105993;1274;97892;-72
2022/01/15 02:04:07;;;;;;;30.50;6.70;;;;;;;0.54;78.00;99544.15;105989;1274;107655;-72
2022/01/15 02:06:39;;;;;;;27.30;5.70;;;;;;;0.52;77.96;99544.56;105969;1274;96653;-73
2022/01/15 02:09:12;;;;;;;28.20;6.40;;;;;;;0.50;78.04;99545.13;105963;1274;97867;-72
2022/01/15 02:11:42;;;;;;;27.60;6.60;;;;;;;0.48;78.03;99547.61;106109;1273;111389;-73
2022/01/15 02:14:27;;;;;;;24.60;5.60;;;;;;;0.46;77.99;99546.09;106056;1274;97949;-72
2022/01/15 02:17:01;;;;;;;22.00;5.80;;;;;;;0.44;77.97;99551.36;105956;1274;108729;-75
2022/01/15 02:19:46;;;;;;;26.50;5.80;;;;;;;0.42;77.97;99548.63;106111;1274;97934;-74
2022/01/15 02:25:04;;;;;;;22.00;5.30;;;;;;;0.39;78.10;99553.23;106070;1274;109952;-73
2022/01/15 02:27:34;;;;;;;27.50;6.50;;;;;;;0.38;78.12;99551.86;106053;1274;97890;-74
2022/01/15 02:30:06;;;;;;;22.70;6.60;;;;;;;0.36;77.96;99544.94;106133;1274;107423;-72
2022/01/15 02:32:37;;;;;;;31.40;7.10;;;;;;;0.34;77.89;99551.61;106035;1274;97847;-73
2022/01/15 02:35:11;;;;;;;25.30;6.50;;;;;;;0.32;78.02;99553.04;106030;1275;97900;-73
2022/01/15 02:37:42;;;;;;;21.60;5.50;;;;;;;0.31;77.92;99551.67;106153;1274;111348;-73
2022/01/15 02:40:11;;;;;;;29.30;6.90;;;;;;;0.31;77.92;99555.69;106118;1273;95818;-72
2022/01/15 02:42:39;;;;;;;20.50;5.10;;;;;;;0.29;77.91;99555.54;106055;1273;107564;-72
2022/01/15 02:45:08;;;;;;;25.50;6.60;;;;;;;0.28;77.94;99556.27;106077;1274;98700;-73
2022/01/15 02:50:23;;;;;;;23.60;6.50;;;;;;;0.27;77.96;99560.13;106100;1274;111290;-72
2022/01/15 02:52:50;;;;;;;23.60;5.90;;;;;;;0.25;77.90;99564.35;106142;1274;97892;-74
2022/01/15 02:55:18;;;;;;;26.90;7.40;;;;;;;0.24;77.95;99564.39;106111;1274;108768;-75
2022/01/15 02:57:46;;;;;;;24.30;6.00;;;;;;;0.21;77.86;99559.57;106122;1274;95326;-74
2022/01/15 03:00:14;;;;;;;28.10;6.70;;;;;;;0.20;77.84;99559.25;106119;1274;97856;-74
2022/01/15 03:02:42;;;;;;;22.70;6.10;;;;;;;0.19;78.03;99563.63;106074;1274;111440;-74
2022/01/15 03:05:10;;;;;;;25.20;6.30;;;;;;;0.19;77.93;99564.50;105961;1274;96680;-74
2022/01/15 03:07:38;;;;;;;25.00;6.20;;;;;;;0.17;77.84;99562.11;106143;1274;106749;-76
2022/01/15 03:10:08;;;;;;;22.10;5.30;;;;;;;0.15;77.95;99563.70;106050;1274;97955;-73
2022/01/15 03:12:36;;;;;;;25.00;5.10;;;;;;;0.13;77.86;99562.52;106054;1273;97976;-75
2022/01/15 03:15:08;;;;;;;30.30;5.80;;;;;;;0.13;77.82;99563.23;106115;1274;111396;-75
2022/01/15 03:17:36;;;;;;;22.50;7.40;;;;;;;0.12;77.86;99565.00;106191;1274;98075;-75
2022/01/15 03:20:08;;;;;;;28.60;6.60;;;;;;;0.12;77.80;99569.71;106001;1274;107721;-78
2022/01/15 03:22:36;;;;;;;26.80;6.90;;;;;;;0.12;77.89;99570.42;105975;1274;97908;-74
2022/01/15 03:25:05;;;;;;;29.20;7.70;;;;;;;0.11;77.84;99577.91;106113;1274;97887;-72
2022/01/15 03:27:33;;;;;;;30.50;8.10;;;;;;;0.10;77.80;99575.33;106073;1274;111356;-74
2022/01/15 03:30:01;;;;;;;23.50;5.50;;;;;;;0.10;77.81;99573.24;106068;1274;129787;-74
2022/01/15 03:32:29;;;;;;;30.70;7.70;;;;;;;0.09;77.75;99576.38;106113;1274;105482;-74
2022/01/15 03:34:57;;;;;;;26.70;6.00;;;;;;;0.07;77.79;99571.02;106111;1273;97924;-73
2022/01/15 03:37:25;;;;;;;23.30;5.70;;;;;;;0.06;77.88;99568.80;106155;1274;98008;-72
2022/01/15 03:39:53;;;;;;;25.40;6.30;;;;;;;0.05;77.68;99567.60;106145;1274;111308;-69
2022/01/15 03:42:20;;;;;;;23.70;5.60;;;;;;;0.03;77.68;99567.98;106141;1274;97886;-73
2022/01/15 03:44:53;;;;;;;25.90;5.80;;;;;;;0.02;77.86;99563.11;106115;1274;107804;-73
2022/01/15 03:47:21;;;;;;;23.30;5.30;;;;;;;0.01;77.71;99562.61;106136;1274;97931;-73
2022/01/15 03:49:48;;;;;;;29.10;6.60;;;;;;;0.00;77.74;99561.59;106075;1274;98676;-72
2022/01/15 03:52:16;;;;;;;22.30;5.80;;;;;;;-0.02;77.72;99563.88;106111;1274;111231;-74
2022/01/15 03:54:45;;;;;;;22.40;5.60;;;;;;;-0.03;77.68;99569.84;106136;1274;97003;-73
2022/01/15 03:57:16;;;;;;;26.10;4.90;;;;;;;-0.03;77.72;99574.56;106100;1274;107639;-74
2022/01/15 03:59:44;;;;;;;22.10;6.30;;;;;;;-0.05;77.69;99574.25;106103;1274;97838;-73
2022/01/15 04:02:16;;;;;;;22.50;5.50;;;;;;;-0.06;77.80;99576.35;106108;1273;97852;-73
2022/01/15 04:04:44;;;;;;;28.80;7.30;;;;;;;-0.08;77.80;99583.89;106101;1273;111229;-74
2022/01/15 04:07:11;;;;;;;23.40;6.80;;;;;;;-0.10;77.82;99585.34;106167;1274;97847;-73
2022/01/15 04:09:39;;;;;;;21.10;6.00;;;;;;;-0.11;77.75;99584.49;106139;1273;107683;-74
2022/01/15 04:12:07;;;;;;;27.10;6.60;;;;;;;-0.12;77.79;99581.19;106160;1274;97854;-73
2022/01/15 04:14:35;;;;;;;24.50;6.30;;;;;;;-0.13;77.65;99584.34;106233;1274;95981;-72
2022/01/15 04:17:07;;;;;;;27.60;6.70;;;;;;;-0.15;77.76;99585.44;106151;1273;111399;-74
2022/01/15 04:19:36;;;;;;;30.10;7.60;;;;;;;-0.17;77.69;99585.30;106129;1274;97959;-73
2022/01/15 04:22:07;;;;;;;27.40;6.60;;;;;;;-0.18;77.74;99588.62;106142;1274;107896;-74
2022/01/15 04:24:35;;;;;;;33.00;8.50;;;;;;;-0.19;77.79;99591.09;106077;1274;97863;-73
2022/01/15 04:27:07;;;;;;;27.60;7.30;;;;;;;-0.22;77.70;99587.34;106136;1274;97969;-73
2022/01/15 04:29:38;;;;;;;29.90;6.90;;;;;;;-0.23;77.73;99587.17;106101;1274;111469;-72
2022/01/15 04:32:08;;;;;;;24.90;7.10;;;;;;;-0.24;77.62;99590.51;106077;1274;97730;-72
2022/01/15 04:34:35;;;;;;;27.40;6.60;;;;;;;-0.26;77.63;99588.45;105994;1274;107679;-73
2022/01/15 04:37:13;;;;;;;21.40;6.40;;;;;;;-0.27;77.70;99590.58;106151;1274;97882;-73
2022/01/15 04:39:43;;;;;;;34.90;8.20;;;;;;;-0.28;77.63;99588.66;106053;1274;95416;-73
2022/01/15 04:42:15;;;;;;;28.10;7.10;;;;;;;-0.29;77.87;99586.41;106078;1274;111297;-72
2022/01/15 04:44:43;;;;;;;29.60;8.40;;;;;;;-0.29;77.79;99587.64;106140;1273;97872;-71
2022/01/15 04:47:11;;;;;;;34.80;8.30;;;;;;;-0.30;77.80;99588.19;106105;1274;107603;-72
2022/01/15 04:49:39;;;;;;;31.20;7.90;;;;;;;-0.32;77.81;99584.02;106093;1274;95298;-73
2022/01/15 04:52:10;;;;;;;29.10;7.70;;;;;;;-0.33;77.81;99588.75;106174;1274;97866;-72
2022/01/15 04:54:38;;;;;;;29.30;7.20;;;;;;;-0.34;77.78;99587.73;106110;1274;110226;-73
2022/01/15 04:57:10;;;;;;;32.50;9.50;;;;;;;-0.34;77.64;99589.12;106122;1274;97973;-71
2022/01/15 04:59:38;;;;;;;28.30;8.30;;;;;;;-0.35;77.87;99579.90;106086;1274;107902;-72
2022/01/15 05:02:06;;;;;;;28.80;9.00;;;;;;;-0.36;77.88;99579.23;105965;1274;98041;-73
2022/01/15 05:04:33;;;;;;;33.00;9.60;;;;;;;-0.37;77.79;99576.64;106079;1274;95262;-73
2022/01/15 05:07:03;;;;;;;29.00;9.00;;;;;;;-0.38;77.83;99570.20;106009;1274;111447;-73
2022/01/15 05:09:31;;;;;;;30.30;9.60;;;;;;;-0.38;77.91;99575.27;106126;1274;98504;-72
2022/01/15 05:14:28;;;;;;;34.70;11.40;;;;;;;-0.40;77.79;99573.20;106102;1274;98998;-72
2022/01/15 05:17:01;;;;;;;27.50;7.20;;;;;;;-0.41;77.76;99572.20;106114;1274;96351;-72
2022/01/15 05:19:31;;;;;;;30.40;8.70;;;;;;;-0.43;77.93;99577.62;106020;1275;111311;-72
2022/01/15 05:22:00;;;;;;;33.60;10.60;;;;;;;-0.43;77.73;99574.33;106191;1274;95186;-71
2022/01/15 05:24:31;;;;;;;24.80;8.20;;;;;;;-0.45;77.87;99582.02;106101;1274;107739;-71
2022/01/15 05:27:03;;;;;;;31.60;7.90;;;;;;;-0.47;77.86;99580.14;106071;1274;97870;-72
2022/01/15 05:29:30;;;;;;;25.80;9.00;;;;;;;-0.47;77.82;99579.80;106139;1274;97885;-72
2022/01/15 05:31:58;;;;;;;25.30;8.10;;;;;;;-0.47;77.72;99578.05;106135;1274;111401;-72
2022/01/15 05:34:33;;;;;;;25.90;8.30;;;;;;;-0.48;77.72;99578.06;106137;1274;96339;-71
2022/01/15 05:37:08;;;;;;;27.70;8.20;;;;;;;-0.48;77.80;99575.80;106165;1274;107750;-73
2022/01/15 05:39:36;;;;;;;29.80;8.80;;;;;;;-0.48;77.77;99573.71;106114;1274;97855;-72
2022/01/15 05:42:07;;;;;;;32.90;9.20;;;;;;;-0.49;77.56;99576.52;106097;1275;96348;-70
2022/01/15 05:44:35;;;;;;;31.50;9.40;;;;;;;-0.49;77.77;99577.21;106100;1274;109988;-72
2022/01/15 05:47:08;;;;;;;29.30;8.40;;;;;;;-0.50;77.66;99578.46;106135;1274;98421;-72
2022/01/15 05:49:39;;;;;;;27.20;7.30;;;;;;;-0.52;77.72;99583.19;106098;1274;107695;-71
2022/01/15 05:52:07;;;;;;;29.90;9.20;;;;;;;-0.52;77.72;99585.63;106084;1273;97879;-71
2022/01/15 05:54:35;;;;;;;26.10;8.50;;;;;;;-0.53;77.77;99593.66;106068;1274;98042;-71
2022/01/15 05:57:04;;;;;;;28.50;9.10;;;;;;;-0.54;77.70;99599.61;106102;1274;111488;-73
2022/01/15 05:59:33;;;;;;;37.00;10.30;;;;;;;-0.53;77.71;99601.34;106142;1273;95545;-73
2022/01/15 06:02:11;;;;;;;27.70;9.00;;;;;;;-0.54;77.77;99606.40;106083;1273;107706;-74
2022/01/15 06:04:39;;;;;;;29.90;8.90;;;;;;;-0.55;77.64;99606.77;106080;1275;97945;-76
2022/01/15 06:07:11;;;;;;;24.70;7.90;;;;;;;-0.56;77.78;99608.17;106179;1274;97886;-74
2022/01/15 06:09:39;;;;;;;27.40;9.20;;;;;;;-0.56;77.70;99608.37;106133;1274;111342;-73
2022/01/15 06:12:10;;;;;;;31.10;10.30;;;;;;;-0.57;77.71;99613.43;106136;1274;97886;-73
2022/01/15 06:14:38;;;;;;;31.30;10.40;;;;;;;-0.59;77.65;99614.85;105961;1275;107647;-73
2022/01/15 06:17:10;;;;;;;32.60;10.60;;;;;;;-0.60;77.73;99620.95;106099;1274;97930;-74
2022/01/15 06:19:42;;;;;;;31.00;10.60;;;;;;;-0.60;77.62;99626.73;106126;1274;95272;-75
2022/01/15 06:22:14;;;;;;;34.10;10.40;;;;;;;-0.60;77.60;99621.84;106136;1274;111476;-73
2022/01/15 06:24:42;;;;;;;39.80;10.90;;;;;;;-0.60;77.77;99622.36;106094;1274;95239;-73
2022/01/15 06:27:16;;;;;;;32.60;10.70;;;;;;;-0.61;77.60;99621.16;106093;1273;107732;-74
2022/01/15 06:29:47;;;;;;;28.90;9.90;;;;;;;-0.61;77.67;99615.77;106089;1274;97963;-73
2022/01/15 06:32:15;;;;;;;33.10;11.70;;;;;;;-0.63;77.67;99611.63;106130;1274;95277;-76
2022/01/15 06:34:42;;;;;;;35.90;13.20;;;;;;;-0.64;77.67;99613.04;106072;1274;112481;-74
2022/01/15 06:37:10;;;;;;;32.80;11.50;;;;;;;-0.65;77.64;99613.74;106200;1274;95206;-74
2022/01/15 06:39:38;;;;;;;38.20;13.20;;;;;;;-0.66;77.67;99621.08;106288;1274;108790;-72
2022/01/15 06:42:06;;;;;;;31.20;13.30;;;;;;;-0.67;77.72;99623.70;106245;1274;95275;-73
2022/01/15 06:44:34;;;;;;;34.40;12.00;;;;;;;-0.66;77.61;99617.95;106263;1274;97981;-72
2022/01/15 06:47:03;;;;;;;39.00;13.60;;;;;;;-0.66;77.69;99615.17;106229;1274;111298;-73
2022/01/15 06:49:31;;;;;;;37.60;12.80;;;;;;;-0.65;77.64;99623.33;106061;1274;97921;-74
2022/01/15 06:52:02;;;;;;;41.60;12.70;;;;;;;-0.65;77.69;99629.24;106090;1274;107912;-74
2022/01/15 06:54:30;;;;;;;35.00;13.00;;;;;;;-0.64;77.70;99635.52;106118;1274;97778;-71
2022/01/15 06:56:58;;;;;;;33.90;12.30;;;;;;;-0.65;77.57;99630.13;106199;1274;97867;-74
2022/01/15 06:59:26;;;;;;;31.50;11.70;;;;;;;-0.65;77.62;99636.91;106198;1274;112247;-71
2022/01/15 07:01:54;;;;;;;33.20;11.10;;;;;;;-0.65;77.74;99641.27;106250;1274;97889;-72
2022/01/15 07:04:26;;;;;;;28.30;10.00;;;;;;;-0.65;77.58;99641.80;106162;1274;107668;-73
2022/01/15 07:06:54;;;;;;;32.00;12.20;;;;;;;-0.64;77.56;99640.21;106183;1274;97856;-76
2022/01/15 07:09:21;;;;;;;32.40;11.10;;;;;;;-0.62;77.73;99643.48;106133;1274;97985;-73
2022/01/15 07:11:49;;;;;;;37.60;12.10;;;;;;;-0.61;77.49;99639.79;106142;1274;112401;-75
2022/01/15 07:14:17;;;;;;;39.00;13.10;;;;;;;-0.59;77.57;99636.28;106225;1274;97852;-70
2022/01/15 07:16:45;;;;;;;29.40;9.50;;;;;;;-0.59;77.70;99640.11;106201;1274;107764;-71
2022/01/15 07:19:13;;;;;;;33.70;11.20;;;;;;;-0.58;77.45;99645.33;106197;1274;95355;-74
2022/01/15 07:21:40;;;;;;;33.00;11.90;;;;;;;-0.57;77.58;99649.31;106246;1274;97938;-72
2022/01/15 07:24:08;;;;;;;28.40;9.90;;;;;;;-0.56;77.55;99651.05;106193;1274;111421;-74
2022/01/15 07:26:36;;;;;;;33.70;11.10;;;;;;;-0.54;77.38;99657.45;106159;1274;97944;-77
2022/01/15 07:29:06;;;;;;;35.20;11.30;;;;;;;-0.51;77.54;99663.67;106183;1274;107758;-72
2022/01/15 07:31:38;;;;;;;31.90;11.10;;;;;;;-0.49;77.71;99658.59;106127;1274;97837;-70
2022/01/15 07:34:06;;;;;;;34.70;11.30;;;;;;;-0.47;77.66;99655.94;106154;1272;95321;-71
2022/01/15 07:36:33;;;;;;;34.40;13.30;;;;;;;-0.44;77.42;99654.49;106078;1274;112296;-73
2022/01/15 07:39:07;;;;;;;28.60;11.70;;;;;;;-0.42;77.61;99650.98;106199;1274;98033;-73
2022/01/15 07:41:38;;;;;;;35.00;11.60;;;;;;;-0.40;77.34;99652.67;106186;1274;107729;-73
2022/01/15 07:44:06;;;;;;;32.80;12.10;;;;;;;-0.39;77.61;99654.21;106191;1274;96230;-74
2022/01/15 07:46:34;;;;;;;29.50;10.90;;;;;;;-0.38;77.41;99652.63;106156;1274;97854;-74
2022/01/15 07:49:05;;;;;;;37.30;11.50;;;;;;;-0.36;77.38;99658.52;106096;1274;111437;-73
2022/01/15 07:51:33;;;;;;;31.00;11.60;;;;;;;-0.34;77.56;99664.05;106157;1274;96202;-76
2022/01/15 07:54:01;;;;;;;32.00;11.10;;;;;;;-0.31;77.48;99676.38;106265;1274;107667;-74
2022/01/15 07:56:29;;;;;;;35.60;11.90;;;;;;;-0.28;77.52;99685.73;106131;1277;97871;-70
2022/01/15 07:58:56;;;;;;;32.40;11.80;;;;;;;-0.24;77.33;99691.42;106158;1274;97857;-74
2022/01/15 08:01:24;;;;;;;34.40;13.20;;;;;;;-0.22;77.32;99687.55;106266;1274;111103;-72
2022/01/15 08:03:56;;;;;;;30.20;10.60;;;;;;;-0.20;77.27;99688.91;106194;1274;97901;-72
2022/01/15 08:06:24;;;;;;;34.30;12.30;;;;;;;-0.19;77.34;99692.36;106096;1274;110260;-73
2022/01/15 08:08:51;;;;;;;34.60;11.20;;;;;;;-0.16;77.36;99691.96;106102;1274;97980;-77
2022/01/15 08:11:19;;;;;;;37.50;12.00;;;;;;;-0.13;77.40;99698.36;106101;1274;98115;-77
2022/01/15 08:13:47;;;;;;;28.80;10.40;;;;;;;-0.10;77.21;99701.98;106161;1274;111390;-81
2022/01/15 08:16:15;;;;;;;35.20;12.30;;;;;;;-0.07;77.40;99691.29;106138;1274;97754;-75
2022/01/15 08:18:43;;;;;;;31.90;10.80;;;;;;;-0.04;77.29;99697.15;106018;1274;107853;-76
2022/01/15 08:21:16;;;;;;;38.70;12.00;;;;;;;-0.00;77.35;99699.02;106157;1274;97965;-78
2022/01/15 08:23:44;;;;;;;37.20;12.20;;;;;;;0.03;77.38;99694.92;106011;1274;97995;-79
2022/01/15 08:26:12;;;;;;;31.20;12.00;;;;;;;0.06;77.28;99693.12;105998;1274;111421;-77
2022/01/15 08:28:40;;;;;;;35.20;12.10;;;;;;;0.09;77.21;99693.94;105892;1275;95952;-75
2022/01/15 08:31:09;;;;;;;33.60;11.10;;;;;;;0.12;77.25;99696.85;106166;1274;107754;-76
2022/01/15 08:33:37;;;;;;;33.20;12.00;;;;;;;0.15;77.06;99697.48;106141;1274;97895;-71
2022/01/15 08:36:05;;;;;;;26.20;9.60;;;;;;;0.19;76.68;99697.77;106190;1274;97966;-71
2022/01/15 08:38:33;;;;;;;31.80;10.60;;;;;;;0.20;76.71;99697.40;106149;1275;111165;-71
2022/01/15 08:41:20;;;;;;;30.20;10.80;;;;;;;0.19;75.97;99696.71;106165;1273;95879;-70
2022/01/15 08:43:48;;;;;;;37.50;11.80;;;;;;;0.19;76.53;99701.95;106165;1274;107666;-70
2022/01/15 08:46:18;;;;;;;30.30;11.40;;;;;;;0.21;76.84;99705.38;106096;1274;97650;-69
2022/01/15 08:48:46;;;;;;;31.60;11.20;;;;;;;0.24;76.96;99705.83;106139;1274;97934;-70
2022/01/15 08:51:15;;;;;;;32.80;11.90;;;;;;;0.28;77.06;99707.86;106166;1274;111409;-70
2022/01/15 08:53:47;;;;;;;27.80;10.00;;;;;;;0.33;76.78;99718.24;106052;1274;97885;-72
2022/01/15 08:56:17;;;;;;;32.70;11.70;;;;;;;0.38;76.82;99715.88;106218;1274;105451;-70
2022/01/15 08:58:44;;;;;;;33.30;11.50;;;;;;;0.44;76.65;99713.11;106214;1274;97855;-69
2022/01/15 09:01:13;;;;;;;38.80;10.80;;;;;;;0.53;76.79;99708.40;106113;1274;97005;-70
2022/01/15 09:03:48;;;;;;;31.00;10.50;;;;;;;0.68;77.14;99716.45;106093;1274;113577;-70
2022/01/15 09:06:15;;;;;;;32.60;11.10;;;;;;;0.89;76.57;99711.98;106107;1274;97956;-70
2022/01/15 09:08:45;;;;;;;29.00;11.20;;;;;;;1.09;76.62;99719.72;106183;1274;105938;-69
2022/01/15 09:11:17;;;;;;;32.40;11.60;;;;;;;1.43;76.09;99709.51;106189;1274;95382;-69
2022/01/15 09:13:45;;;;;;;30.30;9.90;;;;;;;1.63;75.81;99715.81;106146;1274;97848;-70
2022/01/15 09:16:12;;;;;;;29.60;11.20;;;;;;;1.76;76.37;99714.63;106120;1274;112843;-70
2022/01/15 09:18:41;;;;;;;29.60;11.00;;;;;;;1.94;76.81;99715.88;106031;1274;97884;-69
2022/01/15 09:21:09;;;;;;;28.90;11.00;;;;;;;2.11;75.81;99717.17;106081;1273;106485;-69
2022/01/15 09:23:41;;;;;;;31.20;11.10;;;;;;;2.35;75.83;99717.92;106126;1274;95186;-69
2022/01/15 09:26:20;;;;;;;32.20;10.20;;;;;;;2.69;76.36;99721.48;106091;1274;97967;-70
2022/01/15 09:31:36;;;;;;;28.50;9.00;;;;;;;3.58;75.81;99719.75;106074;1274;95943;-73
2022/01/15 09:34:04;;;;;;;25.00;9.30;;;;;;;3.90;75.93;99723.78;106121;1274;107672;-71
2022/01/15 09:36:32;;;;;;;28.20;10.50;;;;;;;4.13;76.12;99722.45;106187;1274;97988;-71
2022/01/15 09:39:00;;;;;;;26.70;8.20;;;;;;;4.29;76.18;99720.66;106204;1274;97943;-71
2022/01/15 09:41:31;;;;;;;27.90;9.10;;;;;;;4.26;75.21;99723.73;106164;1274;112700;-71
2022/01/15 09:44:02;;;;;;;27.00;8.70;;;;;;;4.14;75.86;99723.11;106213;1274;97870;-72
2022/01/15 09:46:36;;;;;;;25.10;8.50;;;;;;;4.14;76.06;99719.05;106052;1274;107545;-72
2022/01/15 09:49:04;;;;;;;;;;;;;;;4.09;75.68;99718.38;106081;1274;97885;-71
2022/01/15 09:51:33;;;;;;;24.20;8.00;;;;;;;3.98;76.03;99713.65;106078;1274;97882;-74
2022/01/15 09:54:01;;;;;;;23.70;7.50;;;;;;;3.85;73.39;99718.86;106121;1274;111315;-73
2022/01/15 09:56:29;;;;;;;24.70;8.30;;;;;;;3.60;74.90;99724.41;106122;1274;97976;-75
2022/01/15 09:59:03;;;;;;;26.70;8.40;;;;;;;3.48;74.63;99724.48;106215;1274;108159;-73
2022/01/15 10:01:36;;;;;;;27.10;8.60;;;;;;;3.33;74.50;99722.15;106195;1274;97858;-72
2022/01/15 10:04:09;;;;;;;27.40;8.70;;;;;;;3.28;74.88;99724.77;106252;1274;97960;-73
2022/01/15 10:07:15;;;;;;;27.00;7.90;;;;;;;3.22;74.66;99722.48;106226;1274;111420;-74
2022/01/15 10:09:45;;;;;;;29.90;8.60;;;;;;;3.19;75.67;99721.02;106196;1274;97970;-75
2022/01/15 10:12:25;;;;;;;26.50;8.20;;;;;;;3.20;74.51;99722.37;106122;1274;106729;-75
2022/01/15 10:14:58;;;;;;;23.60;7.60;;;;;;;3.15;73.70;99722.89;106141;1273;97896;-73
2022/01/15 10:17:34;;;;;;;27.60;7.10;;;;;;;3.09;73.35;99720.11;106017;1274;96012;-73
2022/01/15 10:20:18;;;;;;;20.30;6.80;;;;;;;3.02;73.87;99726.11;106008;1273;111025;-74
2022/01/15 10:22:48;;;;;;;26.30;8.00;;;;;;;3.02;74.47;99722.27;106081;1274;97879;-75
2022/01/15 10:25:21;;;;;;;23.50;7.20;;;;;;;3.01;73.54;99722.81;106221;1273;108497;-75
2022/01/15 10:27:53;;;;;;;24.80;8.20;;;;;;;2.96;74.71;99722.75;106220;1274;97752;-72
2022/01/15 10:30:27;;;;;;;27.70;8.80;;;;;;;3.02;74.99;99726.80;106252;1273;97940;-74
2022/01/15 10:33:00;;;;;;;24.20;7.30;;;;;;;3.09;75.16;99733.58;106115;1275;109693;-72
2022/01/15 10:35:39;;;;;;;21.80;6.90;;;;;;;3.10;74.17;99733.54;106184;1274;97727;-72
2022/01/15 10:38:14;;;;;;;25.40;7.30;;;;;;;3.09;74.84;99722.19;106207;1274;107352;-71
2022/01/15 10:40:55;;;;;;;23.10;8.00;;;;;;;3.10;75.26;99725.48;106165;1274;98503;-72
2022/01/15 10:43:35;;;;;;;22.70;6.70;;;;;;;3.10;74.93;99736.02;106173;1274;97880;-72
2022/01/15 10:46:03;;;;;;;21.50;7.10;;;;;;;3.08;73.99;99733.97;106135;1274;111033;-71
2022/01/15 10:48:34;;;;;;;26.70;8.50;;;;;;;3.01;72.50;99735.42;106188;1274;97969;-73
2022/01/15 10:51:05;;;;;;;23.90;7.30;;;;;;;2.91;72.97;99734.86;106133;1273;106910;-73
2022/01/15 10:54:01;;;;;;;23.50;8.00;;;;;;;2.86;74.34;99731.49;106247;1274;97882;-73
2022/01/15 10:56:28;;;;;;;23.20;7.50;;;;;;;2.86;73.60;99737.27;106128;1274;97999;-73
2022/01/15 10:59:10;;;;;;;25.80;7.60;;;;;;;2.85;74.04;99737.30;106187;1274;110884;-74
2022/01/15 11:01:38;;;;;;;24.00;7.10;;;;;;;2.80;73.16;99735.16;106213;1274;97893;-74
2022/01/15 11:04:11;;;;;;;24.80;7.20;;;;;;;2.75;72.75;99731.28;106200;1274;107784;-72
2022/01/15 11:06:39;;;;;;;22.50;7.40;;;;;;;2.74;73.88;99731.51;106238;1274;97784;-74
2022/01/15 11:09:09;;;;;;;19.80;6.50;;;;;;;2.77;74.55;99737.71;106243;1274;97951;-74
2022/01/15 11:11:55;;;;;;;19.60;6.00;;;;;;;2.79;72.60;99740.80;106232;1274;111381;-77
2022/01/15 11:14:22;;;;;;;21.00;6.50;;;;;;;2.75;73.04;99734.63;106267;1274;97979;-74
2022/01/15 11:16:54;;;;;;;21.10;6.10;;;;;;;2.75;72.93;99731.64;106172;1274;107689;-73
2022/01/15 11:19:25;;;;;;;24.00;7.00;;;;;;;2.79;73.90;99731.02;106174;1274;97969;-72
2022/01/15 11:21:54;;;;;;;25.40;8.60;;;;;;;2.83;74.11;99730.00;106231;1274;97869;-73
2022/01/15 11:24:21;;;;;;;23.50;7.10;;;;;;;2.88;73.80;99730.04;106193;1274;111392;-76
2022/01/15 11:26:55;;;;;;;25.90;7.90;;;;;;;2.90;73.68;99729.63;106230;1274;97964;-72
2022/01/15 11:29:25;;;;;;;26.50;8.40;;;;;;;2.94;74.04;99724.94;106213;1274;107757;-74
2022/01/15 11:31:57;;;;;;;25.30;8.00;;;;;;;3.02;74.25;99721.73;106064;1273;97929;-72
2022/01/15 11:34:27;;;;;;;21.20;6.60;;;;;;;3.08;73.69;99725.39;106251;1274;96392;-72
2022/01/15 11:36:55;;;;;;;23.90;7.60;;;;;;;3.04;72.71;99726.55;106000;1274;111443;-71
2022/01/15 11:39:30;;;;;;;22.10;6.50;;;;;;;3.01;73.12;99726.48;106168;1274;97866;-73
2022/01/15 11:42:02;;;;;;;23.60;6.90;;;;;;;3.02;73.38;99726.81;106110;1274;108003;-70
2022/01/15 11:44:35;;;;;;;22.40;7.20;;;;;;;3.05;73.79;99727.94;106133;1274;97861;-71
2022/01/15 11:47:15;;;;;;;20.30;6.30;;;;;;;3.09;72.28;99733.59;106229;1274;95279;-72
2022/01/15 11:49:49;;;;;;;24.40;7.90;;;;;;;3.05;72.38;99734.27;106101;1274;111472;-73
2022/01/15 11:52:22;;;;;;;26.10;7.70;;;;;;;3.01;72.88;99735.78;106012;1274;98507;-71
2022/01/15 11:54:50;;;;;;;17.80;6.70;;;;;;;2.99;72.11;99736.70;106012;1274;106761;-72